sensor_id;sensor_type;location;lat;lon;timestamp;P1;durP1;ratioP1;P2;durP2;ratioP2
37299;SDS011;23184;51.902;12.836;2023-11-19T00:02:08;8.88;;;5.78;;
37299;SDS011;23184;51.902;12.836;2023-11-19T00:04:36;12.93;;;5.63;;
37299;SDS011;23184;51.902;12.836;2023-11-19T00:07:04;8.38;;;4.97;;
37299;SDS011;23184;51.902;12.836;2023-11-19T00:09:31;8.18;;;5.30;;
37299;SDS011;23184;51.902;12.836;2023-11-19T00:11:57;8.40;;;4.95;;
37299;SDS011;23184;51.902;12.836;2023-11-19T00:14:25;7.88;;;4.80;;
37299;SDS011;23184;51.902;12.836;2023-11-19T00:16:51;7.38;;;4.55;;
37299;SDS011;23184;51.902;12.836;2023-11-19T00:19:16;9.68;;;4.90;;
37299;SDS011;23184;51.902;12.836;2023-11-19T00:21:42;7.03;;;4.35;;
37299;SDS011;23184;51.902;12.836;2023-11-19T00:24:07;7.85;;;4.57;;
37299;SDS011;23184;51.902;12.836;2023-11-19T00:26:33;8.23;;;4.25;;
37299;SDS011;23184;51.902;12.836;2023-11-19T00:28:59;8.93;;;4.53;;
37299;SDS011;23184;51.902;12.836;2023-11-19T00:31:25;9.65;;;5.07;;
37299;SDS011;23184;51.902;12.836;2023-11-19T00:33:52;6.93;;;4.18;;
37299;SDS011;23184;51.902;12.836;2023-11-19T00:36:18;15.70;;;4.38;;
37299;SDS011;23184;51.902;12.836;2023-11-19T00:38:44;6.13;;;4.25;;
37299;SDS011;23184;51.902;12.836;2023-11-19T00:41:09;6.47;;;3.70;;
37299;SDS011;23184;51.902;12.836;2023-11-19T00:43:35;6.43;;;4.20;;
37299;SDS011;23184;51.902;12.836;2023-11-19T00:46:01;9.65;;;3.75;;
37299;SDS011;23184;51.902;12.836;2023-11-19T00:48:29;7.47;;;4.13;;
37299;SDS011;23184;51.902;12.836;2023-11-19T00:50:54;8.23;;;4.35;;
37299;SDS011;23184;51.902;12.836;2023-11-19T00:53:20;9.40;;;5.10;;
37299;SDS011;23184;51.902;12.836;2023-11-19T00:55:45;8.63;;;5.07;;
37299;SDS011;23184;51.902;12.836;2023-11-19T00:58:11;8.45;;;5.15;;
37299;SDS011;23184;51.902;12.836;2023-11-19T01:00:36;8.32;;;4.88;;
37299;SDS011;23184;51.902;12.836;2023-11-19T01:03:02;8.73;;;5.20;;
37299;SDS011;23184;51.902;12.836;2023-11-19T01:05:27;7.93;;;4.70;;
37299;SDS011;23184;51.902;12.836;2023-11-19T01:07:53;10.85;;;4.93;;
37299;SDS011;23184;51.902;12.836;2023-11-19T01:10:19;8.63;;;5.65;;
37299;SDS011;23184;51.902;12.836;2023-11-19T01:12:45;11.68;;;6.13;;
37299;SDS011;23184;51.902;12.836;2023-11-19T01:15:11;9.88;;;6.15;;
37299;SDS011;23184;51.902;12.836;2023-11-19T01:17:38;9.65;;;5.60;;
37299;SDS011;23184;51.902;12.836;2023-11-19T01:20:03;8.82;;;5.40;;
37299;SDS011;23184;51.902;12.836;2023-11-19T01:22:31;8.95;;;5.80;;
37299;SDS011;23184;51.902;12.836;2023-11-19T01:24:57;9.55;;;5.22;;
37299;SDS011;23184;51.902;12.836;2023-11-19T01:27:23;7.60;;;5.13;;
37299;SDS011;23184;51.902;12.836;2023-11-19T01:29:49;9.55;;;5.10;;
37299;SDS011;23184;51.902;12.836;2023-11-19T01:32:14;9.02;;;5.90;;
37299;SDS011;23184;51.902;12.836;2023-11-19T01:34:40;8.02;;;5.30;;
37299;SDS011;23184;51.902;12.836;2023-11-19T01:37:06;8.27;;;5.38;;
37299;SDS011;23184;51.902;12.836;2023-11-19T01:39:31;6.45;;;4.57;;
37299;SDS011;23184;51.902;12.836;2023-11-19T01:41:57;8.52;;;5.38;;
37299;SDS011;23184;51.902;12.836;2023-11-19T01:44:22;9.20;;;4.95;;
37299;SDS011;23184;51.902;12.836;2023-11-19T01:46:48;10.25;;;5.10;;
37299;SDS011;23184;51.902;12.836;2023-11-19T01:49:15;8.57;;;5.05;;
37299;SDS011;23184;51.902;12.836;2023-11-19T01:51:40;8.10;;;4.30;;
37299;SDS011;23184;51.902;12.836;2023-11-19T01:54:07;7.70;;;4.40;;
37299;SDS011;23184;51.902;12.836;2023-11-19T01:56:33;8.85;;;5.57;;
37299;SDS011;23184;51.902;12.836;2023-11-19T01:59:00;8.68;;;4.63;;
37299;SDS011;23184;51.902;12.836;2023-11-19T02:01:27;7.85;;;4.82;;
37299;SDS011;23184;51.902;12.836;2023-11-19T02:03:54;9.38;;;4.45;;
37299;SDS011;23184;51.902;12.836;2023-11-19T02:06:20;7.90;;;5.03;;
37299;SDS011;23184;51.902;12.836;2023-11-19T02:08:46;7.97;;;4.68;;
37299;SDS011;23184;51.902;12.836;2023-11-19T02:11:12;7.97;;;5.00;;
37299;SDS011;23184;51.902;12.836;2023-11-19T02:13:37;9.27;;;4.60;;
37299;SDS011;23184;51.902;12.836;2023-11-19T02:16:03;8.60;;;4.72;;
37299;SDS011;23184;51.902;12.836;2023-11-19T02:18:29;7.90;;;4.93;;
37299;SDS011;23184;51.902;12.836;2023-11-19T02:20:55;11.75;;;5.20;;
37299;SDS011;23184;51.902;12.836;2023-11-19T02:23:25;8.70;;;4.93;;
37299;SDS011;23184;51.902;12.836;2023-11-19T02:28:40;7.65;;;4.82;;
37299;SDS011;23184;51.902;12.836;2023-11-19T02:31:07;11.23;;;5.82;;
37299;SDS011;23184;51.902;12.836;2023-11-19T02:33:37;8.57;;;6.03;;
37299;SDS011;23184;51.902;12.836;2023-11-19T02:36:06;9.18;;;5.40;;
37299;SDS011;23184;51.902;12.836;2023-11-19T02:38:32;10.23;;;5.60;;
37299;SDS011;23184;51.902;12.836;2023-11-19T02:40:59;11.02;;;5.20;;
37299;SDS011;23184;51.902;12.836;2023-11-19T02:43:28;9.45;;;5.82;;
37299;SDS011;23184;51.902;12.836;2023-11-19T02:45:53;10.38;;;5.70;;
37299;SDS011;23184;51.902;12.836;2023-11-19T02:48:20;9.57;;;5.97;;
37299;SDS011;23184;51.902;12.836;2023-11-19T02:50:46;9.40;;;6.43;;
37299;SDS011;23184;51.902;12.836;2023-11-19T02:53:13;11.63;;;7.03;;
37299;SDS011;23184;51.902;12.836;2023-11-19T02:55:38;11.13;;;6.38;;
37299;SDS011;23184;51.902;12.836;2023-11-19T02:58:05;10.07;;;6.25;;
37299;SDS011;23184;51.902;12.836;2023-11-19T03:00:44;9.60;;;6.47;;
37299;SDS011;23184;51.902;12.836;2023-11-19T03:03:17;10.60;;;7.00;;
37299;SDS011;23184;51.902;12.836;2023-11-19T03:05:46;13.85;;;7.45;;
37299;SDS011;23184;51.902;12.836;2023-11-19T03:08:12;14.63;;;7.43;;
37299;SDS011;23184;51.902;12.836;2023-11-19T03:10:37;14.63;;;7.85;;
37299;SDS011;23184;51.902;12.836;2023-11-19T03:13:03;15.77;;;7.72;;
37299;SDS011;23184;51.902;12.836;2023-11-19T03:15:29;13.65;;;8.13;;
37299;SDS011;23184;51.902;12.836;2023-11-19T03:17:55;17.25;;;8.48;;
37299;SDS011;23184;51.902;12.836;2023-11-19T03:20:20;14.73;;;8.45;;
37299;SDS011;23184;51.902;12.836;2023-11-19T03:22:48;14.10;;;8.82;;
37299;SDS011;23184;51.902;12.836;2023-11-19T03:25:15;15.57;;;8.43;;
37299;SDS011;23184;51.902;12.836;2023-11-19T03:27:41;15.18;;;7.85;;
37299;SDS011;23184;51.902;12.836;2023-11-19T03:30:07;15.82;;;9.32;;
37299;SDS011;23184;51.902;12.836;2023-11-19T03:32:36;12.82;;;7.95;;
37299;SDS011;23184;51.902;12.836;2023-11-19T03:35:03;17.25;;;8.98;;
37299;SDS011;23184;51.902;12.836;2023-11-19T03:37:29;14.48;;;8.25;;
37299;SDS011;23184;51.902;12.836;2023-11-19T03:39:57;16.73;;;9.45;;
37299;SDS011;23184;51.902;12.836;2023-11-19T03:42:24;22.13;;;9.15;;
37299;SDS011;23184;51.902;12.836;2023-11-19T03:44:51;18.08;;;9.13;;
37299;SDS011;23184;51.902;12.836;2023-11-19T03:47:18;14.32;;;8.52;;
37299;SDS011;23184;51.902;12.836;2023-11-19T03:49:47;20.08;;;9.43;;
37299;SDS011;23184;51.902;12.836;2023-11-19T03:52:14;17.55;;;9.52;;
37299;SDS011;23184;51.902;12.836;2023-11-19T03:54:39;15.18;;;9.02;;
37299;SDS011;23184;51.902;12.836;2023-11-19T03:57:05;17.33;;;9.63;;
37299;SDS011;23184;51.902;12.836;2023-11-19T03:59:30;18.20;;;9.23;;
37299;SDS011;23184;51.902;12.836;2023-11-19T04:01:56;19.52;;;9.98;;
37299;SDS011;23184;51.902;12.836;2023-11-19T04:04:22;17.52;;;9.52;;
37299;SDS011;23184;51.902;12.836;2023-11-19T04:06:47;19.65;;;10.05;;
37299;SDS011;23184;51.902;12.836;2023-11-19T04:09:13;18.45;;;8.85;;
37299;SDS011;23184;51.902;12.836;2023-11-19T04:11:39;18.83;;;10.15;;
37299;SDS011;23184;51.902;12.836;2023-11-19T04:14:05;15.73;;;9.68;;
37299;SDS011;23184;51.902;12.836;2023-11-19T04:16:30;16.58;;;9.48;;
37299;SDS011;23184;51.902;12.836;2023-11-19T04:18:56;15.57;;;8.80;;
37299;SDS011;23184;51.902;12.836;2023-11-19T04:21:22;16.63;;;9.55;;
37299;SDS011;23184;51.902;12.836;2023-11-19T04:23:48;16.80;;;9.80;;
37299;SDS011;23184;51.902;12.836;2023-11-19T04:26:14;18.95;;;10.55;;
37299;SDS011;23184;51.902;12.836;2023-11-19T04:28:40;16.05;;;9.70;;
37299;SDS011;23184;51.902;12.836;2023-11-19T04:31:06;16.30;;;9.82;;
37299;SDS011;23184;51.902;12.836;2023-11-19T04:33:32;17.92;;;9.80;;
37299;SDS011;23184;51.902;12.836;2023-11-19T04:35:57;16.38;;;10.32;;
37299;SDS011;23184;51.902;12.836;2023-11-19T04:38:23;19.65;;;9.00;;
37299;SDS011;23184;51.902;12.836;2023-11-19T04:40:48;16.27;;;9.55;;
37299;SDS011;23184;51.902;12.836;2023-11-19T04:43:14;19.00;;;10.23;;
37299;SDS011;23184;51.902;12.836;2023-11-19T04:45:40;18.63;;;10.00;;
37299;SDS011;23184;51.902;12.836;2023-11-19T04:48:06;16.65;;;9.00;;
37299;SDS011;23184;51.902;12.836;2023-11-19T04:50:31;16.63;;;9.20;;
37299;SDS011;23184;51.902;12.836;2023-11-19T04:52:57;17.00;;;9.32;;
37299;SDS011;23184;51.902;12.836;2023-11-19T04:55:22;12.68;;;6.93;;
37299;SDS011;23184;51.902;12.836;2023-11-19T04:57:48;15.18;;;8.07;;
37299;SDS011;23184;51.902;12.836;2023-11-19T05:00:13;15.38;;;7.68;;
37299;SDS011;23184;51.902;12.836;2023-11-19T05:02:39;10.98;;;6.78;;
37299;SDS011;23184;51.902;12.836;2023-11-19T05:05:05;14.52;;;6.80;;
37299;SDS011;23184;51.902;12.836;2023-11-19T05:07:30;14.77;;;6.22;;
37299;SDS011;23184;51.902;12.836;2023-11-19T05:09:56;10.30;;;5.80;;
37299;SDS011;23184;51.902;12.836;2023-11-19T05:12:22;8.55;;;5.40;;
37299;SDS011;23184;51.902;12.836;2023-11-19T05:14:47;8.15;;;5.10;;
37299;SDS011;23184;51.902;12.836;2023-11-19T05:17:16;8.95;;;4.85;;
37299;SDS011;23184;51.902;12.836;2023-11-19T05:19:43;8.27;;;5.20;;
37299;SDS011;23184;51.902;12.836;2023-11-19T05:22:09;10.85;;;5.38;;
37299;SDS011;23184;51.902;12.836;2023-11-19T05:24:34;7.30;;;4.60;;
37299;SDS011;23184;51.902;12.836;2023-11-19T05:27:00;6.65;;;4.28;;
37299;SDS011;23184;51.902;12.836;2023-11-19T05:29:26;6.15;;;4.53;;
37299;SDS011;23184;51.902;12.836;2023-11-19T05:31:52;7.18;;;4.57;;
37299;SDS011;23184;51.902;12.836;2023-11-19T05:34:20;10.25;;;4.95;;
37299;SDS011;23184;51.902;12.836;2023-11-19T05:36:46;11.20;;;5.25;;
37299;SDS011;23184;51.902;12.836;2023-11-19T05:39:12;8.65;;;5.10;;
37299;SDS011;23184;51.902;12.836;2023-11-19T05:41:37;8.85;;;4.78;;
37299;SDS011;23184;51.902;12.836;2023-11-19T05:44:03;12.07;;;5.18;;
37299;SDS011;23184;51.902;12.836;2023-11-19T05:46:28;10.98;;;5.07;;
37299;SDS011;23184;51.902;12.836;2023-11-19T05:48:54;10.20;;;5.20;;
37299;SDS011;23184;51.902;12.836;2023-11-19T05:51:19;18.92;;;5.80;;
37299;SDS011;23184;51.902;12.836;2023-11-19T05:53:45;10.75;;;5.75;;
37299;SDS011;23184;51.902;12.836;2023-11-19T05:56:10;10.30;;;5.10;;
37299;SDS011;23184;51.902;12.836;2023-11-19T05:58:36;11.40;;;5.47;;
37299;SDS011;23184;51.902;12.836;2023-11-19T06:01:02;9.48;;;5.30;;
37299;SDS011;23184;51.902;12.836;2023-11-19T06:03:29;8.23;;;5.38;;
37299;SDS011;23184;51.902;12.836;2023-11-19T06:05:55;10.90;;;5.22;;
37299;SDS011;23184;51.902;12.836;2023-11-19T06:08:20;13.18;;;5.35;;
37299;SDS011;23184;51.902;12.836;2023-11-19T06:10:46;8.57;;;5.03;;
37299;SDS011;23184;51.902;12.836;2023-11-19T06:13:12;11.77;;;5.05;;
37299;SDS011;23184;51.902;12.836;2023-11-19T06:15:40;10.63;;;5.18;;
37299;SDS011;23184;51.902;12.836;2023-11-19T06:18:06;10.38;;;5.30;;
37299;SDS011;23184;51.902;12.836;2023-11-19T06:20:33;9.60;;;5.15;;
37299;SDS011;23184;51.902;12.836;2023-11-19T06:22:58;9.00;;;5.68;;
37299;SDS011;23184;51.902;12.836;2023-11-19T06:25:24;8.35;;;5.47;;
37299;SDS011;23184;51.902;12.836;2023-11-19T06:27:51;8.30;;;4.90;;
37299;SDS011;23184;51.902;12.836;2023-11-19T06:30:17;7.63;;;4.72;;
37299;SDS011;23184;51.902;12.836;2023-11-19T06:32:42;8.77;;;5.00;;
37299;SDS011;23184;51.902;12.836;2023-11-19T06:35:08;6.72;;;4.30;;
37299;SDS011;23184;51.902;12.836;2023-11-19T06:37:34;8.85;;;4.63;;
37299;SDS011;23184;51.902;12.836;2023-11-19T06:40:00;9.35;;;4.93;;
37299;SDS011;23184;51.902;12.836;2023-11-19T06:42:27;8.68;;;4.88;;
37299;SDS011;23184;51.902;12.836;2023-11-19T06:44:52;6.72;;;4.45;;
37299;SDS011;23184;51.902;12.836;2023-11-19T06:47:18;8.82;;;4.97;;
37299;SDS011;23184;51.902;12.836;2023-11-19T06:49:44;7.35;;;4.18;;
37299;SDS011;23184;51.902;12.836;2023-11-19T06:52:09;7.30;;;4.50;;
37299;SDS011;23184;51.902;12.836;2023-11-19T06:54:36;7.93;;;4.70;;
37299;SDS011;23184;51.902;12.836;2023-11-19T06:57:04;6.80;;;4.25;;
37299;SDS011;23184;51.902;12.836;2023-11-19T06:59:30;6.57;;;4.90;;
37299;SDS011;23184;51.902;12.836;2023-11-19T07:01:56;8.75;;;5.15;;
37299;SDS011;23184;51.902;12.836;2023-11-19T07:04:21;6.97;;;4.65;;
37299;SDS011;23184;51.902;12.836;2023-11-19T07:06:47;7.78;;;4.75;;
37299;SDS011;23184;51.902;12.836;2023-11-19T07:09:13;6.60;;;4.10;;
37299;SDS011;23184;51.902;12.836;2023-11-19T07:11:39;5.57;;;3.70;;
37299;SDS011;23184;51.902;12.836;2023-11-19T07:14:06;4.55;;;2.80;;
37299;SDS011;23184;51.902;12.836;2023-11-19T07:16:33;4.68;;;2.67;;
37299;SDS011;23184;51.902;12.836;2023-11-19T07:18:59;3.88;;;2.65;;
37299;SDS011;23184;51.902;12.836;2023-11-19T07:21:25;3.42;;;2.08;;
37299;SDS011;23184;51.902;12.836;2023-11-19T07:23:53;3.15;;;2.05;;
37299;SDS011;23184;51.902;12.836;2023-11-19T07:26:19;2.63;;;1.75;;
37299;SDS011;23184;51.902;12.836;2023-11-19T07:28:44;2.55;;;1.90;;
37299;SDS011;23184;51.902;12.836;2023-11-19T07:31:10;2.47;;;2.05;;
37299;SDS011;23184;51.902;12.836;2023-11-19T07:33:37;1.95;;;1.80;;
37299;SDS011;23184;51.902;12.836;2023-11-19T07:36:04;2.85;;;1.77;;
37299;SDS011;23184;51.902;12.836;2023-11-19T07:38:30;2.92;;;1.98;;
37299;SDS011;23184;51.902;12.836;2023-11-19T07:40:56;2.10;;;1.73;;
37299;SDS011;23184;51.902;12.836;2023-11-19T07:43:21;2.25;;;1.77;;
37299;SDS011;23184;51.902;12.836;2023-11-19T07:45:47;2.20;;;1.70;;
37299;SDS011;23184;51.902;12.836;2023-11-19T07:48:13;2.40;;;1.70;;
37299;SDS011;23184;51.902;12.836;2023-11-19T07:50:39;2.67;;;2.00;;
37299;SDS011;23184;51.902;12.836;2023-11-19T07:53:07;2.60;;;1.80;;
37299;SDS011;23184;51.902;12.836;2023-11-19T07:55:33;2.53;;;1.60;;
37299;SDS011;23184;51.902;12.836;2023-11-19T07:57:59;2.45;;;1.65;;
37299;SDS011;23184;51.902;12.836;2023-11-19T08:00:25;2.95;;;1.50;;
37299;SDS011;23184;51.902;12.836;2023-11-19T08:02:50;1.77;;;1.40;;
37299;SDS011;23184;51.902;12.836;2023-11-19T08:05:16;1.65;;;1.20;;
37299;SDS011;23184;51.902;12.836;2023-11-19T08:07:41;3.25;;;1.63;;
37299;SDS011;23184;51.902;12.836;2023-11-19T08:10:07;1.45;;;1.35;;
37299;SDS011;23184;51.902;12.836;2023-11-19T08:12:35;3.33;;;1.25;;
37299;SDS011;23184;51.902;12.836;2023-11-19T08:15:01;1.33;;;1.20;;
37299;SDS011;23184;51.902;12.836;2023-11-19T08:17:30;1.55;;;1.10;;
37299;SDS011;23184;51.902;12.836;2023-11-19T08:19:56;2.20;;;1.20;;
37299;SDS011;23184;51.902;12.836;2023-11-19T08:22:21;4.00;;;1.30;;
37299;SDS011;23184;51.902;12.836;2023-11-19T08:24:47;1.50;;;1.00;;
37299;SDS011;23184;51.902;12.836;2023-11-19T08:27:13;3.08;;;1.33;;
37299;SDS011;23184;51.902;12.836;2023-11-19T08:29:39;2.83;;;1.40;;
37299;SDS011;23184;51.902;12.836;2023-11-19T08:32:05;2.25;;;1.63;;
37299;SDS011;23184;51.902;12.836;2023-11-19T08:34:31;3.28;;;1.30;;
37299;SDS011;23184;51.902;12.836;2023-11-19T08:36:57;2.60;;;1.30;;
37299;SDS011;23184;51.902;12.836;2023-11-19T08:39:23;4.05;;;1.30;;
37299;SDS011;23184;51.902;12.836;2023-11-19T08:41:49;1.52;;;0.93;;
37299;SDS011;23184;51.902;12.836;2023-11-19T08:44:15;2.28;;;1.38;;
37299;SDS011;23184;51.902;12.836;2023-11-19T08:46:50;4.90;;;1.50;;
37299;SDS011;23184;51.902;12.836;2023-11-19T08:49:15;1.25;;;1.00;;
37299;SDS011;23184;51.902;12.836;2023-11-19T08:51:41;2.40;;;1.10;;
37299;SDS011;23184;51.902;12.836;2023-11-19T08:54:07;5.20;;;1.45;;
37299;SDS011;23184;51.902;12.836;2023-11-19T08:56:33;3.47;;;1.00;;
37299;SDS011;23184;51.902;12.836;2023-11-19T08:59:00;3.72;;;1.13;;
37299;SDS011;23184;51.902;12.836;2023-11-19T09:01:26;2.35;;;1.00;;
37299;SDS011;23184;51.902;12.836;2023-11-19T09:03:51;2.60;;;0.77;;
37299;SDS011;23184;51.902;12.836;2023-11-19T09:06:17;1.27;;;0.75;;
37299;SDS011;23184;51.902;12.836;2023-11-19T09:08:43;1.30;;;0.70;;
37299;SDS011;23184;51.902;12.836;2023-11-19T09:11:08;1.95;;;0.90;;
37299;SDS011;23184;51.902;12.836;2023-11-19T09:13:34;3.80;;;0.70;;
37299;SDS011;23184;51.902;12.836;2023-11-19T09:16:00;3.67;;;0.90;;
37299;SDS011;23184;51.902;12.836;2023-11-19T09:18:28;3.88;;;0.80;;
37299;SDS011;23184;51.902;12.836;2023-11-19T09:20:57;3.72;;;1.05;;
37299;SDS011;23184;51.902;12.836;2023-11-19T09:23:23;2.85;;;1.02;;
37299;SDS011;23184;51.902;12.836;2023-11-19T09:25:50;2.45;;;0.90;;
37299;SDS011;23184;51.902;12.836;2023-11-19T09:28:16;1.67;;;0.73;;
37299;SDS011;23184;51.902;12.836;2023-11-19T09:30:41;4.18;;;1.25;;
37299;SDS011;23184;51.902;12.836;2023-11-19T09:33:07;3.50;;;1.10;;
37299;SDS011;23184;51.902;12.836;2023-11-19T09:35:32;5.25;;;1.25;;
37299;SDS011;23184;51.902;12.836;2023-11-19T09:37:58;7.28;;;1.38;;
37299;SDS011;23184;51.902;12.836;2023-11-19T09:40:24;6.82;;;1.48;;
37299;SDS011;23184;51.902;12.836;2023-11-19T09:42:49;3.25;;;1.27;;
37299;SDS011;23184;51.902;12.836;2023-11-19T09:45:16;3.10;;;1.15;;
37299;SDS011;23184;51.902;12.836;2023-11-19T09:47:43;2.22;;;1.20;;
37299;SDS011;23184;51.902;12.836;2023-11-19T09:50:16;4.00;;;1.20;;
37299;SDS011;23184;51.902;12.836;2023-11-19T09:52:46;6.43;;;1.38;;
37299;SDS011;23184;51.902;12.836;2023-11-19T09:55:12;6.10;;;1.10;;
37299;SDS011;23184;51.902;12.836;2023-11-19T09:57:38;4.35;;;1.30;;
37299;SDS011;23184;51.902;12.836;2023-11-19T10:00:07;4.95;;;2.10;;
37299;SDS011;23184;51.902;12.836;2023-11-19T10:02:35;5.03;;;1.27;;
37299;SDS011;23184;51.902;12.836;2023-11-19T10:05:04;4.25;;;1.25;;
37299;SDS011;23184;51.902;12.836;2023-11-19T10:07:33;7.88;;;1.45;;
37299;SDS011;23184;51.902;12.836;2023-11-19T10:10:00;7.30;;;2.25;;
37299;SDS011;23184;51.902;12.836;2023-11-19T10:12:29;4.38;;;0.90;;
37299;SDS011;23184;51.902;12.836;2023-11-19T10:14:58;4.95;;;1.50;;
37299;SDS011;23184;51.902;12.836;2023-11-19T10:17:27;6.68;;;1.65;;
37299;SDS011;23184;51.902;12.836;2023-11-19T10:19:54;4.63;;;1.50;;
37299;SDS011;23184;51.902;12.836;2023-11-19T10:22:21;6.32;;;1.48;;
37299;SDS011;23184;51.902;12.836;2023-11-19T10:24:49;8.80;;;1.48;;
37299;SDS011;23184;51.902;12.836;2023-11-19T10:27:14;7.38;;;1.50;;
37299;SDS011;23184;51.902;12.836;2023-11-19T10:29:40;7.10;;;1.88;;
37299;SDS011;23184;51.902;12.836;2023-11-19T10:32:12;6.80;;;2.00;;
37299;SDS011;23184;51.902;12.836;2023-11-19T10:34:39;11.75;;;2.33;;
37299;SDS011;23184;51.902;12.836;2023-11-19T10:37:06;6.75;;;1.80;;
37299;SDS011;23184;51.902;12.836;2023-11-19T10:42:19;8.90;;;1.73;;
37299;SDS011;23184;51.902;12.836;2023-11-19T10:44:45;11.00;;;2.45;;
37299;SDS011;23184;51.902;12.836;2023-11-19T10:47:11;9.30;;;2.15;;
37299;SDS011;23184;51.902;12.836;2023-11-19T10:49:38;6.88;;;1.75;;
37299;SDS011;23184;51.902;12.836;2023-11-19T10:52:04;7.90;;;2.03;;
37299;SDS011;23184;51.902;12.836;2023-11-19T10:54:32;10.90;;;2.13;;
37299;SDS011;23184;51.902;12.836;2023-11-19T10:56:59;17.17;;;2.45;;
37299;SDS011;23184;51.902;12.836;2023-11-19T10:59:28;9.02;;;2.60;;
37299;SDS011;23184;51.902;12.836;2023-11-19T11:01:56;13.02;;;2.22;;
37299;SDS011;23184;51.902;12.836;2023-11-19T11:04:25;13.27;;;2.80;;
37299;SDS011;23184;51.902;12.836;2023-11-19T11:06:53;8.88;;;1.98;;
37299;SDS011;23184;51.902;12.836;2023-11-19T11:09:21;13.57;;;2.17;;
37299;SDS011;23184;51.902;12.836;2023-11-19T11:11:46;12.05;;;2.45;;
37299;SDS011;23184;51.902;12.836;2023-11-19T11:14:12;9.30;;;2.38;;
37299;SDS011;23184;51.902;12.836;2023-11-19T11:16:42;10.07;;;2.17;;
37299;SDS011;23184;51.902;12.836;2023-11-19T11:19:09;6.95;;;1.92;;
37299;SDS011;23184;51.902;12.836;2023-11-19T11:21:38;14.40;;;2.10;;
37299;SDS011;23184;51.902;12.836;2023-11-19T11:27:15;9.38;;;2.15;;
37299;SDS011;23184;51.902;12.836;2023-11-19T11:30:14;8.05;;;1.70;;
37299;SDS011;23184;51.902;12.836;2023-11-19T11:35:53;9.75;;;2.35;;
37299;SDS011;23184;51.902;12.836;2023-11-19T11:38:28;13.57;;;2.70;;
37299;SDS011;23184;51.902;12.836;2023-11-19T11:43:49;12.30;;;2.72;;
37299;SDS011;23184;51.902;12.836;2023-11-19T11:49:01;10.93;;;2.17;;
37299;SDS011;23184;51.902;12.836;2023-11-19T11:54:08;11.55;;;2.17;;
37299;SDS011;23184;51.902;12.836;2023-11-19T11:56:36;12.75;;;3.05;;
37299;SDS011;23184;51.902;12.836;2023-11-19T11:59:03;16.13;;;2.47;;
37299;SDS011;23184;51.902;12.836;2023-11-19T12:01:32;10.13;;;2.22;;
37299;SDS011;23184;51.902;12.836;2023-11-19T12:03:58;16.40;;;2.63;;
37299;SDS011;23184;51.902;12.836;2023-11-19T12:06:23;14.48;;;2.60;;
37299;SDS011;23184;51.902;12.836;2023-11-19T12:08:51;20.95;;;5.07;;
37299;SDS011;23184;51.902;12.836;2023-11-19T12:11:17;15.00;;;3.10;;
37299;SDS011;23184;51.902;12.836;2023-11-19T12:13:52;19.33;;;3.95;;
37299;SDS011;23184;51.902;12.836;2023-11-19T12:16:21;15.68;;;3.42;;
37299;SDS011;23184;51.902;12.836;2023-11-19T12:18:47;14.68;;;3.05;;
37299;SDS011;23184;51.902;12.836;2023-11-19T12:21:27;17.92;;;2.75;;
37299;SDS011;23184;51.902;12.836;2023-11-19T12:23:57;13.47;;;3.07;;
37299;SDS011;23184;51.902;12.836;2023-11-19T12:26:33;18.83;;;3.25;;
37299;SDS011;23184;51.902;12.836;2023-11-19T12:28:59;13.25;;;3.42;;
37299;SDS011;23184;51.902;12.836;2023-11-19T12:31:25;16.05;;;2.95;;
37299;SDS011;23184;51.902;12.836;2023-11-19T12:33:51;17.88;;;2.95;;
37299;SDS011;23184;51.902;12.836;2023-11-19T12:36:17;12.55;;;3.13;;
37299;SDS011;23184;51.902;12.836;2023-11-19T12:38:44;13.43;;;2.95;;
37299;SDS011;23184;51.902;12.836;2023-11-19T12:41:11;12.20;;;3.08;;
37299;SDS011;23184;51.902;12.836;2023-11-19T12:43:38;20.42;;;3.08;;
37299;SDS011;23184;51.902;12.836;2023-11-19T12:46:17;14.50;;;2.70;;
37299;SDS011;23184;51.902;12.836;2023-11-19T12:48:44;11.98;;;2.40;;
37299;SDS011;23184;51.902;12.836;2023-11-19T12:51:11;16.17;;;3.00;;
37299;SDS011;23184;51.902;12.836;2023-11-19T12:53:49;14.10;;;2.35;;
37299;SDS011;23184;51.902;12.836;2023-11-19T12:56:19;12.63;;;3.08;;
37299;SDS011;23184;51.902;12.836;2023-11-19T12:58:45;13.70;;;2.75;;
37299;SDS011;23184;51.902;12.836;2023-11-19T13:01:14;12.02;;;2.65;;
37299;SDS011;23184;51.902;12.836;2023-11-19T13:03:44;16.55;;;3.00;;
37299;SDS011;23184;51.902;12.836;2023-11-19T13:06:11;15.10;;;3.00;;
37299;SDS011;23184;51.902;12.836;2023-11-19T13:08:47;13.13;;;3.35;;
37299;SDS011;23184;51.902;12.836;2023-11-19T13:11:15;14.15;;;3.10;;
37299;SDS011;23184;51.902;12.836;2023-11-19T13:14:04;14.00;;;2.85;;
37299;SDS011;23184;51.902;12.836;2023-11-19T13:16:33;15.75;;;3.28;;
37299;SDS011;23184;51.902;12.836;2023-11-19T13:19:01;11.70;;;3.40;;
37299;SDS011;23184;51.902;12.836;2023-11-19T13:21:27;14.15;;;3.22;;
37299;SDS011;23184;51.902;12.836;2023-11-19T13:23:54;13.75;;;3.88;;
37299;SDS011;23184;51.902;12.836;2023-11-19T13:26:20;21.55;;;3.58;;
37299;SDS011;23184;51.902;12.836;2023-11-19T13:28:45;19.27;;;3.78;;
37299;SDS011;23184;51.902;12.836;2023-11-19T13:31:11;17.50;;;3.40;;
37299;SDS011;23184;51.902;12.836;2023-11-19T13:33:37;15.10;;;4.03;;
37299;SDS011;23184;51.902;12.836;2023-11-19T13:36:03;19.35;;;4.00;;
37299;SDS011;23184;51.902;12.836;2023-11-19T13:38:31;21.67;;;4.82;;
37299;SDS011;23184;51.902;12.836;2023-11-19T13:40:57;21.45;;;4.22;;
37299;SDS011;23184;51.902;12.836;2023-11-19T13:43:24;15.13;;;4.07;;
37299;SDS011;23184;51.902;12.836;2023-11-19T13:45:50;16.33;;;4.30;;
37299;SDS011;23184;51.902;12.836;2023-11-19T13:48:18;12.45;;;3.78;;
37299;SDS011;23184;51.902;12.836;2023-11-19T13:50:43;16.75;;;4.97;;
37299;SDS011;23184;51.902;12.836;2023-11-19T13:53:09;24.98;;;4.85;;
37299;SDS011;23184;51.902;12.836;2023-11-19T13:55:34;23.67;;;5.22;;
37299;SDS011;23184;51.902;12.836;2023-11-19T13:58:00;26.48;;;5.50;;
37299;SDS011;23184;51.902;12.836;2023-11-19T14:00:26;19.33;;;5.20;;
37299;SDS011;23184;51.902;12.836;2023-11-19T14:02:51;20.70;;;5.43;;
37299;SDS011;23184;51.902;12.836;2023-11-19T14:05:17;24.10;;;4.30;;
37299;SDS011;23184;51.902;12.836;2023-11-19T14:07:43;26.80;;;4.30;;
37299;SDS011;23184;51.902;12.836;2023-11-19T14:10:09;20.38;;;4.45;;
37299;SDS011;23184;51.902;12.836;2023-11-19T14:12:36;18.15;;;4.25;;
37299;SDS011;23184;51.902;12.836;2023-11-19T14:15:07;16.85;;;4.07;;
37299;SDS011;23184;51.902;12.836;2023-11-19T14:17:34;22.63;;;5.00;;
37299;SDS011;23184;51.902;12.836;2023-11-19T14:20:01;23.13;;;4.43;;
37299;SDS011;23184;51.902;12.836;2023-11-19T14:22:30;17.83;;;4.05;;
37299;SDS011;23184;51.902;12.836;2023-11-19T14:24:55;17.65;;;3.83;;
37299;SDS011;23184;51.902;12.836;2023-11-19T14:27:21;19.73;;;3.97;;
37299;SDS011;23184;51.902;12.836;2023-11-19T14:29:47;20.10;;;3.63;;
37299;SDS011;23184;51.902;12.836;2023-11-19T14:32:13;18.77;;;4.25;;
37299;SDS011;23184;51.902;12.836;2023-11-19T14:34:38;17.63;;;3.50;;
37299;SDS011;23184;51.902;12.836;2023-11-19T14:37:04;17.10;;;3.58;;
37299;SDS011;23184;51.902;12.836;2023-11-19T14:39:29;15.23;;;3.15;;
37299;SDS011;23184;51.902;12.836;2023-11-19T14:41:56;20.13;;;4.07;;
37299;SDS011;23184;51.902;12.836;2023-11-19T14:44:25;19.20;;;4.22;;
37299;SDS011;23184;51.902;12.836;2023-11-19T14:46:51;18.70;;;3.47;;